Portada
METAR-TAF:

METAR-TAF

Aeropuertos :

Amán, Jordania

Aeropuerto Civil de Amán

latitud: 31-59N, longitud: 035-59E, altitud: 767 m

Observación

El informe se hizo hace 1 hora y 4 minutos, a las 06:00 UTC
Viento calma
Temperatura 24°C
Humedad 50%
Presión 1014 hPa
Visibilidad: 6000 m

METAR: OJAM 240600Z 00000KT 6000 NSC 24/13 Q1014 NOSIG

Hora: 10:04 (07:04 UTC)

Pronóstico

El informe se hizo hace 14 horas y 14 minutos, a las 16:50 UTC
Pronóstico válido del 23 a las 18 UTC al 25 a las 06 UTC
Viento 6 kt del oeste-noroeste
Visibilidad: 5000 m
calima
Temporalmente
del 24 a las 02 UTC al 24 a las 06 UTC
Viento 2 kt con dirección variable

TAF: OJAM 231650Z 2318/2506 30006KT 5000 HZ NSC TEMPO 2402/2406 VRB02KT

Observaciones y pronósticos meteorológicos de más de 4000 aeropuertos (mensajes METAR y TAF).

Los puntos amarillos y rojos representan las estaciones disponibles.

Ponga el ratón en el punto deseado para ver el nombre de la estación.

Haga clic para ver las observaciones y los pronósticos meteorológicos.

Para cambiar el mapa : haga clic en los botones verdes con una cruz de color negro para hacer un zoom, en el botón verde con un guión para alejar o en las flechas verdes para mapas adyacentes.


METAR-TAF: